createdAt,value
2018-05-08T01:28:12.854Z,99.90
2018-05-08T01:48:57.123Z,99.90
2018-05-08T01:54:50.088Z,99.90
2018-05-08T02:03:42.456Z,99.90
2018-05-08T02:17:58.733Z,99.90
2018-05-08T02:23:29.466Z,99.90
2018-05-08T02:26:16.117Z,99.90
2018-05-08T02:31:56.195Z,99.90
2018-05-08T02:34:31.049Z,99.90
2018-05-08T02:37:11.356Z,99.90
2018-05-08T02:39:45.314Z,99.90
2018-05-08T02:42:21.628Z,99.90
2018-05-08T02:44:55.230Z,99.90
2018-05-08T02:58:51.915Z,99.90
2018-05-08T03:01:19.875Z,99.90
2018-05-08T03:03:49.118Z,99.90
2018-05-08T03:06:23.268Z,99.90
2018-05-08T03:08:53.722Z,99.90
2018-05-08T03:11:24.844Z,99.90
2018-05-08T03:13:54.903Z,99.90
2018-05-08T03:16:27.160Z,99.90
2018-05-08T03:18:57.178Z,99.90
2018-05-08T03:21:32.164Z,99.90
2018-05-08T03:27:02.627Z,99.90
2018-05-08T03:29:37.270Z,99.90
2018-05-08T03:32:08.644Z,99.90
2018-05-08T03:34:41.868Z,99.90
2018-05-08T03:37:15.389Z,99.90
2018-05-08T03:42:51.732Z,99.90
2018-05-08T04:00:56.258Z,91.80
2018-05-08T04:03:36.540Z,88.50
2018-05-08T04:06:13.285Z,79.20
2018-05-08T04:08:41.849Z,76.80
2018-05-08T04:11:08.325Z,76.70
2018-05-08T04:13:34.699Z,73.40
2018-05-08T04:16:00.994Z,70.80
2018-05-08T04:18:27.197Z,71.50
2018-05-08T04:20:54.146Z,71.50
2018-05-08T04:23:21.063Z,70.40
2018-05-08T04:25:47.267Z,70.30
2018-05-08T04:28:13.447Z,67.30
2018-05-08T04:30:40.384Z,66.00
2018-05-08T04:33:06.594Z,66.40
2018-05-08T04:35:32.753Z,64.60
2018-05-08T04:37:58.962Z,65.20
2018-05-08T04:40:25.150Z,63.30
2018-05-08T04:42:51.339Z,62.50
2018-05-08T04:45:17.528Z,56.70
2018-05-08T04:47:43.713Z,53.10
2018-05-08T04:50:09.919Z,51.80
2018-05-08T04:52:36.085Z,49.10
2018-05-08T04:55:02.276Z,48.70
2018-05-08T04:57:28.483Z,48.70
2018-05-08T04:59:54.661Z,48.40
2018-05-08T05:02:20.858Z,46.80
2018-05-08T05:04:47.039Z,49.60
2018-05-08T05:07:13.216Z,49.50
2018-05-08T05:09:39.407Z,49.10
2018-05-08T05:12:07.065Z,50.50
2018-05-08T05:14:33.285Z,50.40
2018-05-08T05:16:59.465Z,51.00
2018-05-08T05:19:26.381Z,45.10
2018-05-08T05:21:52.559Z,45.00
2018-05-08T05:24:18.757Z,43.70
2018-05-08T05:26:44.966Z,40.30
2018-05-08T05:29:11.148Z,38.60
2018-05-08T05:31:38.212Z,37.40
2018-05-08T05:34:04.364Z,37.40
2018-05-08T05:36:30.581Z,40.00
2018-05-08T05:38:56.752Z,43.00
2018-05-08T05:41:22.951Z,43.60
2018-05-08T05:43:49.182Z,43.30
2018-05-08T05:46:15.383Z,44.40
2018-05-08T05:48:41.576Z,41.70
2018-05-08T05:51:07.765Z,39.10
2018-05-08T05:53:34.693Z,36.50
2018-05-08T05:56:00.902Z,36.40
2018-05-08T05:58:27.073Z,35.30
2018-05-08T06:00:53.994Z,34.50
2018-05-08T06:03:20.194Z,34.50
2018-05-08T06:05:46.373Z,35.40
2018-05-08T06:08:12.582Z,36.50
2018-05-08T06:10:38.765Z,37.20
2018-05-08T06:13:05.737Z,38.30
2018-05-08T06:15:32.651Z,39.90
2018-05-08T06:17:59.568Z,38.90
2018-05-08T06:20:25.871Z,38.70
2018-05-08T06:22:51.996Z,37.70
2018-05-08T06:25:18.334Z,34.50
2018-05-08T06:27:44.525Z,35.00
2018-05-08T06:30:10.701Z,33.00
2018-05-08T06:32:36.910Z,34.30
2018-05-08T06:35:03.857Z,41.00
2018-05-08T06:37:30.786Z,42.90
2018-05-08T06:39:57.011Z,42.70
2018-05-08T06:42:24.702Z,51.40
2018-05-08T06:44:51.648Z,55.80
2018-05-08T06:47:18.561Z,56.40
2018-05-08T06:49:44.745Z,56.30
2018-05-08T06:52:10.937Z,56.30
2018-05-08T06:54:37.141Z,55.50
2018-05-08T06:57:03.340Z,52.10
2018-05-08T06:59:30.256Z,55.70
2018-05-08T07:01:56.446Z,55.40
2018-05-08T07:04:22.638Z,56.60
2018-05-08T07:06:49.564Z,59.20
2018-05-08T07:09:15.851Z,59.10
2018-05-08T07:11:42.010Z,60.90
2018-05-08T07:14:08.199Z,62.80
2018-05-08T07:16:35.124Z,53.90
2018-05-08T07:19:01.305Z,53.90
2018-05-08T07:21:27.489Z,52.40
2018-05-08T07:23:53.748Z,55.00
2018-05-08T07:26:19.884Z,55.60
2018-05-08T07:28:46.851Z,61.90
2018-05-08T07:31:13.039Z,61.70
2018-05-08T07:33:39.225Z,51.80
2018-05-08T07:36:05.410Z,59.10
2018-05-08T07:38:31.619Z,60.40
2018-05-08T07:40:57.820Z,60.60
2018-05-08T07:43:24.002Z,54.00
2018-05-08T07:45:50.198Z,54.00
2018-05-08T07:48:16.398Z,54.40
2018-05-08T07:50:43.363Z,58.20
2018-05-08T07:53:09.540Z,58.80
2018-05-08T07:55:35.733Z,53.20
2018-05-08T07:58:01.954Z,57.40
2018-05-08T08:00:28.152Z,55.60
2018-05-08T08:02:55.818Z,54.40
2018-05-08T08:05:21.996Z,54.40
2018-05-08T08:07:48.243Z,53.50
2018-05-08T08:10:14.404Z,55.60
2018-05-08T08:12:40.613Z,57.30
2018-05-08T08:15:06.798Z,55.10
2018-05-08T08:17:33.822Z,50.70
2018-05-08T08:20:00.106Z,50.50
2018-05-08T08:22:26.326Z,49.50
2018-05-08T08:24:53.278Z,49.80
2018-05-08T08:27:20.203Z,53.90
2018-05-08T08:29:46.453Z,53.80
2018-05-08T08:32:14.098Z,52.60
2018-05-08T08:34:40.282Z,52.50
2018-05-08T08:37:06.486Z,54.10
2018-05-08T08:39:33.417Z,51.30
2018-05-08T08:41:59.635Z,51.20
2018-05-08T08:44:25.825Z,54.80
2018-05-08T08:46:51.992Z,51.00
2018-05-08T08:49:18.213Z,49.20
2018-05-08T08:51:44.393Z,48.60
2018-05-08T08:54:11.320Z,45.00
2018-05-08T08:56:37.515Z,44.40
2018-05-08T08:59:03.711Z,45.50
2018-05-08T09:01:42.028Z,52.50
2018-05-08T09:04:08.953Z,51.60
2018-05-08T09:06:35.137Z,51.60
2018-05-08T09:09:01.333Z,54.10
2018-05-08T09:11:27.517Z,46.20
2018-05-08T09:13:53.734Z,46.70
2018-05-08T09:16:19.901Z,46.50
2018-05-08T09:18:46.069Z,45.60
2018-05-08T09:21:13.002Z,46.90
2018-05-08T09:23:39.217Z,46.80
2018-05-08T09:26:06.194Z,46.30
2018-05-08T09:28:32.374Z,46.20
2018-05-08T09:30:58.628Z,47.10
2018-05-08T09:33:25.488Z,50.10
2018-05-08T09:35:51.670Z,50.20
2018-05-08T09:38:17.864Z,48.30
2018-05-08T09:40:45.573Z,49.90
2018-05-08T09:43:11.744Z,49.90
2018-05-08T09:45:37.955Z,49.00
2018-05-08T09:48:04.153Z,47.90
2018-05-08T09:50:31.089Z,44.10
2018-05-08T09:52:57.269Z,44.00
2018-05-08T09:55:23.462Z,50.20
2018-05-08T09:57:50.407Z,51.50
2018-05-08T10:00:16.617Z,51.40
2018-05-08T10:02:42.783Z,49.90
2018-05-08T10:05:09.709Z,45.20
2018-05-08T10:07:36.638Z,45.60
2018-05-08T10:10:02.836Z,45.40
2018-05-08T10:12:29.065Z,48.90
2018-05-08T10:14:55.241Z,50.40
2018-05-08T10:17:21.424Z,44.30
2018-05-08T10:19:48.350Z,45.30
2018-05-08T10:22:15.328Z,46.70
2018-05-08T10:24:42.247Z,48.50
2018-05-08T10:27:08.430Z,48.30
2018-05-08T10:29:35.445Z,42.40
2018-05-08T10:32:02.390Z,43.80
2018-05-08T10:34:29.317Z,41.50
2018-05-08T10:36:55.512Z,41.50
2018-05-08T10:39:22.161Z,42.20
2018-05-08T10:41:48.358Z,48.30
2018-05-08T10:44:15.281Z,42.50
2018-05-08T10:46:42.932Z,45.00
2018-05-08T10:49:09.131Z,45.00
2018-05-08T10:51:35.302Z,45.90
2018-05-08T10:54:01.519Z,41.00
2018-05-08T10:56:27.697Z,44.20
2018-05-08T10:58:54.618Z,40.90
2018-05-08T11:01:20.809Z,40.80
2018-05-08T11:03:46.990Z,46.50
2018-05-08T11:06:13.200Z,44.30
2018-05-08T11:08:39.385Z,41.70
2018-05-08T11:11:06.330Z,42.00
2018-05-08T11:13:33.263Z,43.80
2018-05-08T11:15:59.460Z,43.80
2018-05-08T11:18:27.178Z,39.40
2018-05-08T11:20:54.090Z,43.50
2018-05-08T11:23:20.288Z,43.40
2018-05-08T11:25:46.462Z,42.50
2018-05-08T11:28:12.629Z,38.90
2018-05-08T11:30:39.571Z,41.30
2018-05-08T11:33:06.514Z,39.60
2018-05-08T11:35:33.434Z,40.70
2018-05-08T11:37:59.635Z,40.70
2018-05-08T11:40:25.833Z,39.20
2018-05-08T11:42:52.034Z,39.90
2018-05-08T11:45:18.236Z,41.80
2018-05-08T11:47:44.401Z,41.30
2018-05-08T11:50:10.606Z,43.20
2018-05-08T11:52:36.780Z,40.80
2018-05-08T11:55:03.971Z,39.10
2018-05-08T11:57:30.886Z,37.50
2018-05-08T11:59:57.818Z,36.40
2018-05-08T12:02:24.056Z,36.40
2018-05-08T12:04:50.242Z,38.90
2018-05-08T12:07:16.461Z,39.60
2018-05-08T12:09:43.378Z,39.50
2018-05-08T12:12:09.547Z,39.40
2018-05-08T12:14:36.545Z,43.10
2018-05-08T12:17:03.418Z,42.60
2018-05-08T12:19:30.390Z,40.60
2018-05-08T12:21:57.306Z,42.00
2018-05-08T12:24:23.477Z,42.00
2018-05-08T12:26:50.399Z,38.10
2018-05-08T12:29:16.600Z,38.10
2018-05-08T12:31:43.528Z,39.80
2018-05-08T12:34:09.707Z,39.60
2018-05-08T12:36:35.878Z,41.70
2018-05-08T12:39:02.095Z,38.70
2018-05-08T12:41:29.025Z,39.10
2018-05-08T12:43:55.979Z,38.40
2018-05-08T12:46:22.154Z,38.20
2018-05-08T12:48:48.322Z,37.40
2018-05-08T12:51:14.532Z,40.00
2018-05-08T12:53:40.701Z,38.90
2018-05-08T12:56:06.946Z,37.50
2018-05-08T12:58:33.161Z,37.90
2018-05-08T13:00:59.337Z,37.50
2018-05-08T13:03:26.253Z,37.60
2018-05-08T13:05:53.214Z,36.30
2018-05-08T13:08:19.422Z,36.00
2018-05-08T13:10:45.626Z,36.40
2018-05-08T13:13:11.829Z,34.20
2018-05-08T13:15:38.757Z,38.90
2018-05-08T13:18:05.693Z,34.70
2018-05-08T13:20:31.886Z,34.90
2018-05-08T13:22:58.062Z,38.10
2018-05-08T13:25:24.278Z,38.60
2018-05-08T13:30:22.398Z,40.40
2018-05-08T13:32:49.339Z,37.60
2018-05-08T13:35:15.533Z,37.10
2018-05-08T13:37:41.729Z,36.10
2018-05-08T13:40:07.917Z,38.40
2018-05-08T13:42:34.180Z,40.20
2018-05-08T13:45:00.394Z,39.00
2018-05-08T13:47:26.568Z,35.70
2018-05-08T13:49:53.520Z,38.30
2018-05-08T13:52:20.445Z,39.00
2018-05-08T13:54:46.620Z,39.70
2018-05-08T13:57:12.817Z,40.10
2018-05-08T13:59:39.089Z,41.60
2018-05-08T14:02:05.225Z,41.40
2018-05-08T14:04:31.429Z,38.70
2018-05-08T14:06:58.443Z,39.90
2018-05-08T14:09:25.320Z,40.00
2018-05-08T14:11:51.515Z,39.70
2018-05-08T14:14:17.723Z,41.90
2018-05-08T14:16:43.898Z,39.90
2018-05-08T14:19:10.122Z,41.40
2018-05-08T14:21:36.313Z,42.00
2018-05-08T14:24:02.510Z,41.00
2018-05-08T14:26:28.713Z,39.10
2018-05-08T14:28:54.888Z,42.90
2018-05-08T14:31:21.927Z,40.80
2018-05-08T14:33:48.030Z,39.90
2018-05-08T14:36:14.217Z,38.70
2018-05-08T14:38:41.158Z,38.50
2018-05-08T14:41:08.079Z,39.80
2018-05-08T14:43:34.336Z,39.70
2018-05-08T14:46:00.481Z,39.00
2018-05-08T14:48:27.407Z,38.60
2018-05-08T14:50:53.610Z,38.60
2018-05-08T14:53:19.829Z,39.50
2018-05-08T14:55:46.715Z,38.50
2018-05-08T14:58:12.922Z,38.20
2018-05-08T15:00:39.101Z,38.90
2018-05-08T15:03:06.048Z,37.00
2018-05-08T15:05:32.990Z,41.60
2018-05-08T15:07:59.173Z,41.00
2018-05-08T15:10:25.353Z,37.30
2018-05-08T15:12:51.552Z,37.80
2018-05-08T15:15:17.761Z,37.30
2018-05-08T15:17:43.939Z,36.70
2018-05-08T15:20:10.112Z,37.00
2018-05-08T15:22:37.029Z,38.90
2018-05-08T15:25:03.213Z,38.80
2018-05-08T15:27:29.420Z,39.40
2018-05-08T15:29:56.331Z,38.50
2018-05-08T15:32:22.513Z,38.70
2018-05-08T15:34:48.713Z,37.50
2018-05-08T15:37:15.627Z,35.70
2018-05-08T15:39:41.824Z,36.00
2018-05-08T15:42:08.298Z,37.60
2018-05-08T15:44:34.478Z,38.40
2018-05-08T15:47:01.432Z,36.90
2018-05-08T15:49:28.340Z,38.30
2018-05-08T15:51:54.574Z,38.30
2018-05-08T15:54:20.845Z,37.30
2018-05-08T15:56:46.953Z,39.00
2018-05-08T15:59:13.895Z,37.50
2018-05-08T16:01:40.088Z,37.50
2018-05-08T16:04:06.284Z,37.40
2018-05-08T16:06:33.214Z,36.80
2018-05-08T16:08:59.380Z,36.80
2018-05-08T16:11:26.381Z,38.10
2018-05-08T16:13:52.521Z,38.20
2018-05-08T16:16:18.685Z,37.10
2018-05-08T16:18:45.638Z,38.00
2018-05-08T16:21:12.550Z,37.40
2018-05-08T16:23:38.734Z,37.40
2018-05-08T16:26:04.929Z,37.10
2018-05-08T16:28:31.107Z,36.50
2018-05-08T16:30:57.313Z,37.00
2018-05-08T16:33:24.261Z,38.00
2018-05-08T16:35:51.180Z,37.50
2018-05-08T16:38:17.371Z,37.50
2018-05-08T16:40:43.555Z,37.70
2018-05-08T16:43:09.762Z,37.10
2018-05-08T16:45:35.971Z,37.20
2018-05-08T16:48:02.145Z,37.20
2018-05-08T16:50:28.345Z,37.30
2018-05-08T16:52:54.522Z,38.40
2018-05-08T16:55:20.740Z,37.80
2018-05-08T16:57:46.915Z,38.30
2018-05-08T17:00:13.830Z,41.40
2018-05-08T17:02:40.833Z,40.90
2018-05-08T17:05:07.030Z,40.90
2018-05-08T17:07:33.998Z,40.50
2018-05-08T17:10:00.930Z,39.50
2018-05-08T17:12:27.858Z,40.00
2018-05-08T17:14:54.043Z,40.10
2018-05-08T17:17:20.295Z,37.30
2018-05-08T17:19:46.485Z,39.80
2018-05-08T17:22:13.426Z,39.00
2018-05-08T17:24:39.600Z,39.00
2018-05-08T17:27:05.779Z,38.50
2018-05-08T17:29:31.966Z,39.70
2018-05-08T17:31:58.166Z,38.80
2018-05-08T17:34:25.131Z,38.70
2018-05-08T17:36:51.351Z,38.50
2018-05-08T17:39:18.333Z,39.90
2018-05-08T17:41:44.533Z,39.70
2018-05-08T17:44:11.497Z,40.60
2018-05-08T17:46:38.426Z,40.70
2018-05-08T17:49:04.619Z,40.70
2018-05-08T17:51:30.817Z,41.00
2018-05-08T17:53:57.014Z,40.10
2018-05-08T17:56:23.251Z,41.70
2018-05-08T17:58:49.433Z,39.80
2018-05-08T18:01:15.614Z,42.10
2018-05-08T18:03:41.834Z,41.70
2018-05-08T18:06:08.035Z,42.20
2018-05-08T18:08:34.222Z,42.30
2018-05-08T18:11:00.446Z,43.00
2018-05-08T18:13:26.644Z,42.50
2018-05-08T18:15:52.875Z,42.80
2018-05-08T18:18:19.072Z,42.30
2018-05-08T18:20:46.035Z,44.50
2018-05-08T18:23:12.239Z,44.50
2018-05-08T18:25:39.222Z,43.60
2018-05-08T18:28:05.427Z,43.70
2018-05-08T18:30:32.394Z,44.80
2018-05-08T18:32:58.578Z,44.80
2018-05-08T18:35:24.786Z,45.30
2018-05-08T18:37:50.976Z,44.30
2018-05-08T18:40:17.973Z,45.50
2018-05-08T18:42:44.222Z,45.50
2018-05-08T18:45:10.467Z,46.10
2018-05-08T18:47:36.694Z,46.30
2018-05-08T18:50:02.933Z,47.40
2018-05-08T18:52:29.130Z,47.90
2018-05-08T18:54:55.350Z,49.00
2018-05-08T18:57:21.643Z,49.30
2018-05-08T18:59:47.898Z,49.20
2018-05-08T19:02:14.845Z,53.10
2018-05-08T19:04:41.864Z,52.50
2018-05-08T19:07:08.153Z,52.40
2018-05-08T19:09:35.074Z,54.00
2018-05-08T19:12:01.314Z,54.00
2018-05-08T19:14:28.264Z,55.00
2018-05-08T19:16:55.257Z,56.10
2018-05-08T19:19:27.615Z,56.00
2018-05-08T19:21:53.830Z,57.80
2018-05-08T19:24:26.982Z,59.40
2018-05-08T19:26:53.165Z,59.40
2018-05-08T19:29:26.208Z,61.50
2018-05-08T19:31:52.401Z,61.30
2018-05-08T19:34:18.597Z,63.20
2018-05-08T19:36:51.591Z,64.90
2018-05-08T19:39:18.510Z,66.80
2018-05-08T19:41:44.715Z,66.70
2018-05-08T19:44:11.150Z,68.10
2018-05-08T19:46:37.330Z,70.20
2018-05-08T19:49:03.528Z,71.20
2018-05-08T19:51:29.702Z,71.70
2018-05-08T19:53:55.874Z,72.50
2018-05-08T19:56:22.070Z,72.60
2018-05-08T19:58:48.989Z,76.90
2018-05-08T20:01:15.202Z,76.80
2018-05-08T20:03:41.396Z,77.20
2018-05-08T20:06:08.337Z,80.50
2018-05-08T20:08:34.530Z,80.40
2018-05-08T20:11:00.710Z,82.10
2018-05-08T20:13:27.649Z,81.70
2018-05-08T20:15:54.583Z,81.60
2018-05-08T20:18:20.781Z,81.40
2018-05-08T20:20:47.025Z,83.40
2018-05-08T20:23:13.907Z,86.40
2018-05-08T20:25:40.089Z,86.30
2018-05-08T20:28:06.281Z,87.50
2018-05-08T20:30:32.552Z,87.00
2018-05-08T20:32:58.769Z,86.00
2018-05-08T20:35:24.905Z,85.20
2018-05-08T20:37:51.081Z,86.10
2018-05-08T20:40:17.254Z,85.50
2018-05-08T20:42:44.178Z,86.20
2018-05-08T20:45:11.146Z,85.50
2018-05-08T20:47:38.078Z,86.50
2018-05-08T20:50:04.265Z,86.30
2018-05-08T20:52:30.458Z,86.80
2018-05-08T20:54:56.633Z,86.40
2018-05-08T20:57:22.810Z,86.90
2018-05-08T20:59:48.989Z,87.70
2018-05-08T21:02:15.179Z,88.30
2018-05-08T21:04:41.376Z,88.90
2018-05-08T21:07:07.556Z,91.50
2018-05-08T21:09:34.522Z,91.50
2018-05-08T21:12:01.440Z,91.10
2018-05-08T21:14:27.618Z,91.40
2018-05-08T21:16:53.831Z,91.90
2018-05-08T21:19:20.768Z,92.30
2018-05-08T21:21:47.693Z,92.70
2018-05-08T21:24:13.870Z,92.60
2018-05-08T21:26:40.811Z,91.90
2018-05-08T21:29:07.763Z,92.30
2018-05-08T21:31:33.950Z,92.20
2018-05-08T21:34:00.131Z,93.00
2018-05-08T21:36:27.094Z,93.50
2018-05-08T21:38:53.265Z,93.40
2018-05-08T21:41:19.458Z,94.10
2018-05-08T21:43:45.649Z,93.70
2018-05-08T21:46:12.046Z,93.00
2018-05-08T21:48:38.231Z,92.90
2018-05-08T21:51:04.440Z,93.80
2018-05-08T21:53:31.366Z,93.70
2018-05-08T21:55:57.541Z,93.70
2018-05-08T21:58:23.739Z,93.70
2018-05-08T22:00:49.915Z,94.30
2018-05-08T22:03:16.981Z,94.60
2018-05-08T22:05:43.898Z,94.80
2018-05-08T22:08:10.085Z,94.70
2018-05-08T22:10:36.285Z,95.00
2018-05-08T22:13:03.219Z,95.40
2018-05-08T22:15:29.437Z,95.30
2018-05-08T22:17:55.624Z,95.60
2018-05-08T22:20:21.892Z,96.30
2018-05-08T22:22:48.076Z,96.00
2018-05-08T22:25:14.995Z,96.30
2018-05-08T22:27:41.213Z,96.20
2018-05-08T22:30:08.201Z,96.10
2018-05-08T22:32:35.165Z,95.70
2018-05-08T22:35:01.346Z,95.70
2018-05-08T22:37:27.529Z,96.10
2018-05-08T22:39:54.462Z,96.10
2018-05-08T22:42:21.393Z,96.40
2018-05-08T22:44:47.582Z,96.40
2018-05-08T22:47:13.921Z,96.40
2018-05-08T22:49:40.101Z,96.10
2018-05-08T22:52:06.293Z,96.20
2018-05-08T22:54:32.459Z,96.50
2018-05-08T22:56:58.677Z,96.80
2018-05-08T22:59:24.841Z,96.90
2018-05-08T23:01:51.791Z,97.00
2018-05-08T23:04:18.730Z,97.40
2018-05-08T23:06:44.917Z,97.30
2018-05-08T23:09:11.141Z,98.30
2018-05-08T23:11:37.337Z,98.30
2018-05-08T23:14:04.274Z,98.20
2018-05-08T23:16:30.458Z,98.10
2018-05-08T23:18:56.626Z,98.50
2018-05-08T23:21:22.847Z,98.40
2018-05-08T23:23:49.029Z,98.00
2018-05-08T23:26:15.941Z,97.80
2018-05-08T23:28:42.125Z,97.70
2018-05-08T23:31:08.307Z,97.50
2018-05-08T23:33:34.501Z,97.80
2018-05-08T23:36:00.686Z,98.20
2018-05-08T23:38:26.900Z,99.50
2018-05-08T23:40:53.090Z,99.40
2018-05-08T23:43:19.263Z,99.90
2018-05-08T23:45:45.479Z,99.90
2018-05-08T23:48:11.657Z,99.40
2018-05-08T23:50:37.841Z,99.10
2018-05-08T23:53:04.021Z,99.00
2018-05-08T23:55:30.192Z,98.60
2018-05-08T23:57:56.411Z,98.70
